sensor_id;sensor_type;location;lat;lon;timestamp;P1;durP1;ratioP1;P2;durP2;ratioP2
3095;SDS011;1558;42.700;23.360;2023-06-10T00:00:05;9.00;;;8.20;;
3095;SDS011;1558;42.700;23.360;2023-06-10T00:02:34;9.13;;;7.87;;
3095;SDS011;1558;42.700;23.360;2023-06-10T00:05:03;9.87;;;9.07;;
3095;SDS011;1558;42.700;23.360;2023-06-10T00:07:31;10.33;;;8.77;;
3095;SDS011;1558;42.700;23.360;2023-06-10T00:09:59;10.00;;;9.10;;
3095;SDS011;1558;42.700;23.360;2023-06-10T00:12:31;10.63;;;9.63;;
3095;SDS011;1558;42.700;23.360;2023-06-10T00:15:05;9.97;;;9.07;;
3095;SDS011;1558;42.700;23.360;2023-06-10T00:17:35;10.37;;;9.37;;
3095;SDS011;1558;42.700;23.360;2023-06-10T00:20:07;10.13;;;9.13;;
3095;SDS011;1558;42.700;23.360;2023-06-10T00:22:39;9.40;;;8.50;;
3095;SDS011;1558;42.700;23.360;2023-06-10T00:25:08;9.50;;;8.60;;
3095;SDS011;1558;42.700;23.360;2023-06-10T00:27:37;11.53;;;9.90;;
3095;SDS011;1558;42.700;23.360;2023-06-10T00:30:08;9.93;;;9.00;;
3095;SDS011;1558;42.700;23.360;2023-06-10T00:32:36;10.80;;;9.67;;
3095;SDS011;1558;42.700;23.360;2023-06-10T00:35:05;10.40;;;9.37;;
3095;SDS011;1558;42.700;23.360;2023-06-10T00:37:34;12.47;;;10.37;;
3095;SDS011;1558;42.700;23.360;2023-06-10T00:40:03;11.23;;;10.23;;
3095;SDS011;1558;42.700;23.360;2023-06-10T00:42:32;10.70;;;9.70;;
3095;SDS011;1558;42.700;23.360;2023-06-10T00:45:00;12.10;;;10.97;;
3095;SDS011;1558;42.700;23.360;2023-06-10T00:47:29;10.20;;;9.17;;
3095;SDS011;1558;42.700;23.360;2023-06-10T00:49:59;10.20;;;9.30;;
3095;SDS011;1558;42.700;23.360;2023-06-10T00:52:28;10.10;;;9.20;;
3095;SDS011;1558;42.700;23.360;2023-06-10T00:54:57;10.43;;;9.43;;
3095;SDS011;1558;42.700;23.360;2023-06-10T00:57:26;10.00;;;9.10;;
3095;SDS011;1558;42.700;23.360;2023-06-10T00:59:56;9.73;;;8.83;;
3095;SDS011;1558;42.700;23.360;2023-06-10T01:02:25;10.60;;;9.60;;
3095;SDS011;1558;42.700;23.360;2023-06-10T01:04:54;9.90;;;8.93;;
3095;SDS011;1558;42.700;23.360;2023-06-10T01:07:24;9.73;;;8.83;;
3095;SDS011;1558;42.700;23.360;2023-06-10T01:09:58;10.03;;;9.03;;
3095;SDS011;1558;42.700;23.360;2023-06-10T01:12:31;12.07;;;9.40;;
3095;SDS011;1558;42.700;23.360;2023-06-10T01:15:02;9.70;;;8.70;;
3095;SDS011;1558;42.700;23.360;2023-06-10T01:17:31;9.97;;;8.77;;
3095;SDS011;1558;42.700;23.360;2023-06-10T01:20:00;9.33;;;8.43;;
3095;SDS011;1558;42.700;23.360;2023-06-10T01:22:39;9.57;;;8.73;;
3095;SDS011;1558;42.700;23.360;2023-06-10T01:25:07;9.07;;;8.30;;
3095;SDS011;1558;42.700;23.360;2023-06-10T01:27:36;10.80;;;8.97;;
3095;SDS011;1558;42.700;23.360;2023-06-10T01:30:08;9.63;;;8.70;;
3095;SDS011;1558;42.700;23.360;2023-06-10T01:32:43;9.70;;;8.70;;
3095;SDS011;1558;42.700;23.360;2023-06-10T01:35:13;10.50;;;9.43;;
3095;SDS011;1558;42.700;23.360;2023-06-10T01:37:45;11.00;;;9.17;;
3095;SDS011;1558;42.700;23.360;2023-06-10T01:40:14;10.53;;;9.53;;
3095;SDS011;1558;42.700;23.360;2023-06-10T01:42:43;10.77;;;9.60;;
3095;SDS011;1558;42.700;23.360;2023-06-10T01:45:11;10.37;;;9.37;;
3095;SDS011;1558;42.700;23.360;2023-06-10T01:47:39;10.53;;;9.57;;
3095;SDS011;1558;42.700;23.360;2023-06-10T01:50:08;11.43;;;10.33;;
3095;SDS011;1558;42.700;23.360;2023-06-10T01:52:37;10.70;;;9.60;;
3095;SDS011;1558;42.700;23.360;2023-06-10T01:55:06;12.40;;;9.57;;
3095;SDS011;1558;42.700;23.360;2023-06-10T01:57:35;10.87;;;9.77;;
3095;SDS011;1558;42.700;23.360;2023-06-10T02:00:03;10.47;;;9.47;;
3095;SDS011;1558;42.700;23.360;2023-06-10T02:02:32;10.40;;;9.40;;
3095;SDS011;1558;42.700;23.360;2023-06-10T02:05:00;10.00;;;9.00;;
3095;SDS011;1558;42.700;23.360;2023-06-10T02:07:28;10.47;;;9.37;;
3095;SDS011;1558;42.700;23.360;2023-06-10T02:09:56;11.30;;;9.33;;
3095;SDS011;1558;42.700;23.360;2023-06-10T02:12:26;9.77;;;8.87;;
3095;SDS011;1558;42.700;23.360;2023-06-10T02:14:54;10.00;;;9.13;;
3095;SDS011;1558;42.700;23.360;2023-06-10T02:17:22;10.47;;;8.93;;
3095;SDS011;1558;42.700;23.360;2023-06-10T02:19:50;9.93;;;9.03;;
3095;SDS011;1558;42.700;23.360;2023-06-10T02:22:20;9.60;;;8.70;;
3095;SDS011;1558;42.700;23.360;2023-06-10T02:24:48;9.97;;;9.07;;
3095;SDS011;1558;42.700;23.360;2023-06-10T02:27:17;11.43;;;10.33;;
3095;SDS011;1558;42.700;23.360;2023-06-10T02:29:47;10.77;;;9.77;;
3095;SDS011;1558;42.700;23.360;2023-06-10T02:32:15;13.33;;;10.07;;
3095;SDS011;1558;42.700;23.360;2023-06-10T02:34:43;12.20;;;10.10;;
3095;SDS011;1558;42.700;23.360;2023-06-10T02:37:12;10.60;;;9.57;;
3095;SDS011;1558;42.700;23.360;2023-06-10T02:39:40;11.30;;;10.17;;
3095;SDS011;1558;42.700;23.360;2023-06-10T02:42:08;11.30;;;10.20;;
3095;SDS011;1558;42.700;23.360;2023-06-10T02:44:36;11.43;;;10.33;;
3095;SDS011;1558;42.700;23.360;2023-06-10T02:47:06;11.63;;;10.13;;
3095;SDS011;1558;42.700;23.360;2023-06-10T02:49:35;11.17;;;10.07;;
3095;SDS011;1558;42.700;23.360;2023-06-10T02:52:03;11.97;;;10.83;;
3095;SDS011;1558;42.700;23.360;2023-06-10T02:54:33;11.23;;;10.23;;
3095;SDS011;1558;42.700;23.360;2023-06-10T02:57:02;12.00;;;10.80;;
3095;SDS011;1558;42.700;23.360;2023-06-10T02:59:31;12.57;;;10.40;;
3095;SDS011;1558;42.700;23.360;2023-06-10T03:01:59;11.97;;;10.87;;
3095;SDS011;1558;42.700;23.360;2023-06-10T03:04:29;12.13;;;10.93;;
3095;SDS011;1558;42.700;23.360;2023-06-10T03:06:57;11.70;;;10.70;;
3095;SDS011;1558;42.700;23.360;2023-06-10T03:09:30;11.33;;;10.13;;
3095;SDS011;1558;42.700;23.360;2023-06-10T03:11:58;11.87;;;10.67;;
3095;SDS011;1558;42.700;23.360;2023-06-10T03:14:27;13.40;;;10.90;;
3095;SDS011;1558;42.700;23.360;2023-06-10T03:16:55;11.57;;;10.57;;
3095;SDS011;1558;42.700;23.360;2023-06-10T03:19:23;11.03;;;9.93;;
3095;SDS011;1558;42.700;23.360;2023-06-10T03:21:58;11.03;;;9.87;;
3095;SDS011;1558;42.700;23.360;2023-06-10T03:24:35;11.57;;;9.53;;
3095;SDS011;1558;42.700;23.360;2023-06-10T03:27:07;10.67;;;9.57;;
3095;SDS011;1558;42.700;23.360;2023-06-10T03:29:35;11.07;;;9.70;;
3095;SDS011;1558;42.700;23.360;2023-06-10T03:32:04;12.07;;;10.63;;
3095;SDS011;1558;42.700;23.360;2023-06-10T03:34:32;11.27;;;9.77;;
3095;SDS011;1558;42.700;23.360;2023-06-10T03:37:02;10.40;;;9.50;;
3095;SDS011;1558;42.700;23.360;2023-06-10T03:39:31;9.90;;;8.90;;
3095;SDS011;1558;42.700;23.360;2023-06-10T03:42:00;8.97;;;8.17;;
3095;SDS011;1558;42.700;23.360;2023-06-10T03:44:28;9.60;;;8.60;;
3095;SDS011;1558;42.700;23.360;2023-06-10T03:46:56;8.50;;;7.80;;
3095;SDS011;1558;42.700;23.360;2023-06-10T03:49:26;9.13;;;8.33;;
3095;SDS011;1558;42.700;23.360;2023-06-10T03:51:56;8.57;;;7.77;;
3095;SDS011;1558;42.700;23.360;2023-06-10T03:54:25;8.50;;;7.80;;
3095;SDS011;1558;42.700;23.360;2023-06-10T03:56:53;8.97;;;8.07;;
3095;SDS011;1558;42.700;23.360;2023-06-10T03:59:21;8.10;;;7.30;;
3095;SDS011;1558;42.700;23.360;2023-06-10T04:01:49;7.90;;;7.10;;
3095;SDS011;1558;42.700;23.360;2023-06-10T04:04:17;8.23;;;7.43;;
3095;SDS011;1558;42.700;23.360;2023-06-10T04:06:45;8.43;;;7.60;;
3095;SDS011;1558;42.700;23.360;2023-06-10T04:09:14;8.40;;;7.60;;
3095;SDS011;1558;42.700;23.360;2023-06-10T04:11:44;9.83;;;8.27;;
3095;SDS011;1558;42.700;23.360;2023-06-10T04:14:12;8.70;;;7.80;;
3095;SDS011;1558;42.700;23.360;2023-06-10T04:16:41;10.07;;;7.83;;
3095;SDS011;1558;42.700;23.360;2023-06-10T04:19:09;9.60;;;8.60;;
3095;SDS011;1558;42.700;23.360;2023-06-10T04:21:37;10.13;;;7.50;;
3095;SDS011;1558;42.700;23.360;2023-06-10T04:24:05;8.80;;;7.90;;
3095;SDS011;1558;42.700;23.360;2023-06-10T04:26:34;8.97;;;8.20;;
3095;SDS011;1558;42.700;23.360;2023-06-10T04:29:04;11.20;;;8.33;;
3095;SDS011;1558;42.700;23.360;2023-06-10T04:31:32;9.07;;;8.17;;
3095;SDS011;1558;42.700;23.360;2023-06-10T04:34:01;8.53;;;7.63;;
3095;SDS011;1558;42.700;23.360;2023-06-10T04:36:29;9.30;;;8.40;;
3095;SDS011;1558;42.700;23.360;2023-06-10T04:38:57;9.87;;;8.47;;
3095;SDS011;1558;42.700;23.360;2023-06-10T04:41:25;9.20;;;8.30;;
3095;SDS011;1558;42.700;23.360;2023-06-10T04:43:53;10.37;;;8.60;;
3095;SDS011;1558;42.700;23.360;2023-06-10T04:46:22;9.40;;;8.27;;
3095;SDS011;1558;42.700;23.360;2023-06-10T04:48:50;9.43;;;8.57;;
3095;SDS011;1558;42.700;23.360;2023-06-10T04:51:21;9.77;;;8.83;;
3095;SDS011;1558;42.700;23.360;2023-06-10T04:53:49;9.57;;;8.67;;
3095;SDS011;1558;42.700;23.360;2023-06-10T04:56:17;12.07;;;10.93;;
3095;SDS011;1558;42.700;23.360;2023-06-10T04:58:45;10.03;;;9.13;;
3095;SDS011;1558;42.700;23.360;2023-06-10T05:01:13;10.33;;;9.10;;
3095;SDS011;1558;42.700;23.360;2023-06-10T05:03:43;13.53;;;9.23;;
3095;SDS011;1558;42.700;23.360;2023-06-10T05:06:11;11.03;;;8.97;;
3095;SDS011;1558;42.700;23.360;2023-06-10T05:08:39;11.57;;;9.00;;
3095;SDS011;1558;42.700;23.360;2023-06-10T05:11:07;10.50;;;9.37;;
3095;SDS011;1558;42.700;23.360;2023-06-10T05:13:35;12.07;;;9.33;;
3095;SDS011;1558;42.700;23.360;2023-06-10T05:16:03;10.67;;;8.93;;
3095;SDS011;1558;42.700;23.360;2023-06-10T05:18:32;10.43;;;9.33;;
3095;SDS011;1558;42.700;23.360;2023-06-10T05:21:01;10.97;;;9.83;;
3095;SDS011;1558;42.700;23.360;2023-06-10T05:23:29;10.53;;;9.53;;
3095;SDS011;1558;42.700;23.360;2023-06-10T05:25:58;10.67;;;9.67;;
3095;SDS011;1558;42.700;23.360;2023-06-10T05:28:26;11.07;;;9.40;;
3095;SDS011;1558;42.700;23.360;2023-06-10T05:30:54;10.60;;;9.03;;
3095;SDS011;1558;42.700;23.360;2023-06-10T05:33:22;13.53;;;9.77;;
3095;SDS011;1558;42.700;23.360;2023-06-10T05:35:50;12.07;;;10.70;;
3095;SDS011;1558;42.700;23.360;2023-06-10T05:38:19;10.80;;;9.63;;
3095;SDS011;1558;42.700;23.360;2023-06-10T05:40:47;11.10;;;9.63;;
3095;SDS011;1558;42.700;23.360;2023-06-10T05:43:16;10.23;;;9.23;;
3095;SDS011;1558;42.700;23.360;2023-06-10T05:45:44;10.70;;;9.70;;
3095;SDS011;1558;42.700;23.360;2023-06-10T05:48:12;11.88;;;10.07;;
3095;SDS011;1558;42.700;23.360;2023-06-10T05:50:40;13.70;;;10.60;;
3095;SDS011;1558;42.700;23.360;2023-06-10T05:53:11;11.55;;;10.35;;
3095;SDS011;1558;42.700;23.360;2023-06-10T05:55:43;15.30;;;10.25;;
3095;SDS011;1558;42.700;23.360;2023-06-10T05:58:12;11.48;;;10.13;;
3095;SDS011;1558;42.700;23.360;2023-06-10T06:00:40;11.05;;;9.95;;
3095;SDS011;1558;42.700;23.360;2023-06-10T06:03:09;11.38;;;10.38;;
3095;SDS011;1558;42.700;23.360;2023-06-10T06:05:38;13.00;;;10.75;;
3095;SDS011;1558;42.700;23.360;2023-06-10T06:08:06;12.52;;;10.63;;
3095;SDS011;1558;42.700;23.360;2023-06-10T06:10:36;15.02;;;11.15;;
3095;SDS011;1558;42.700;23.360;2023-06-10T06:13:06;12.77;;;11.35;;
3095;SDS011;1558;42.700;23.360;2023-06-10T06:15:34;12.30;;;11.02;;
3095;SDS011;1558;42.700;23.360;2023-06-10T06:18:02;15.68;;;12.38;;
3095;SDS011;1558;42.700;23.360;2023-06-10T06:20:30;13.25;;;11.98;;
3095;SDS011;1558;42.700;23.360;2023-06-10T06:22:59;11.95;;;10.75;;
3095;SDS011;1558;42.700;23.360;2023-06-10T06:25:27;12.90;;;10.85;;
3095;SDS011;1558;42.700;23.360;2023-06-10T06:27:55;12.20;;;10.85;;
3095;SDS011;1558;42.700;23.360;2023-06-10T06:30:24;13.15;;;10.95;;
3095;SDS011;1558;42.700;23.360;2023-06-10T06:32:52;12.88;;;11.60;;
3095;SDS011;1558;42.700;23.360;2023-06-10T06:35:21;11.90;;;10.80;;
3095;SDS011;1558;42.700;23.360;2023-06-10T06:37:49;12.45;;;9.85;;
3095;SDS011;1558;42.700;23.360;2023-06-10T06:40:17;12.05;;;9.60;;
3095;SDS011;1558;42.700;23.360;2023-06-10T06:42:46;11.00;;;9.95;;
3095;SDS011;1558;42.700;23.360;2023-06-10T06:45:14;12.13;;;10.85;;
3095;SDS011;1558;42.700;23.360;2023-06-10T06:47:43;12.00;;;9.85;;
3095;SDS011;1558;42.700;23.360;2023-06-10T06:50:12;11.40;;;10.13;;
3095;SDS011;1558;42.700;23.360;2023-06-10T06:52:41;10.05;;;9.05;;
3095;SDS011;1558;42.700;23.360;2023-06-10T06:55:09;9.98;;;8.98;;
3095;SDS011;1558;42.700;23.360;2023-06-10T06:57:38;9.25;;;8.35;;
3095;SDS011;1558;42.700;23.360;2023-06-10T07:00:06;12.20;;;8.82;;
3095;SDS011;1558;42.700;23.360;2023-06-10T07:02:36;11.55;;;8.68;;
3095;SDS011;1558;42.700;23.360;2023-06-10T07:05:05;8.13;;;7.43;;
3095;SDS011;1558;42.700;23.360;2023-06-10T07:07:34;9.05;;;7.75;;
3095;SDS011;1558;42.700;23.360;2023-06-10T07:10:03;8.23;;;6.90;;
3095;SDS011;1558;42.700;23.360;2023-06-10T07:12:31;9.18;;;6.43;;
3095;SDS011;1558;42.700;23.360;2023-06-10T07:15:00;9.30;;;6.85;;
3095;SDS011;1558;42.700;23.360;2023-06-10T07:17:28;7.68;;;6.13;;
3095;SDS011;1558;42.700;23.360;2023-06-10T07:19:56;7.55;;;6.82;;
3095;SDS011;1558;42.700;23.360;2023-06-10T07:22:27;10.02;;;6.90;;
3095;SDS011;1558;42.700;23.360;2023-06-10T07:24:57;7.00;;;6.00;;
3095;SDS011;1558;42.700;23.360;2023-06-10T07:27:25;9.77;;;7.55;;
3095;SDS011;1558;42.700;23.360;2023-06-10T07:29:53;8.48;;;7.65;;
3095;SDS011;1558;42.700;23.360;2023-06-10T07:32:21;7.72;;;6.95;;
3095;SDS011;1558;42.700;23.360;2023-06-10T07:34:50;7.38;;;6.78;;
3095;SDS011;1558;42.700;23.360;2023-06-10T07:37:19;5.13;;;4.65;;
3095;SDS011;1558;42.700;23.360;2023-06-10T07:39:49;6.57;;;5.90;;
3095;SDS011;1558;42.700;23.360;2023-06-10T07:42:17;8.60;;;7.68;;
3095;SDS011;1558;42.700;23.360;2023-06-10T07:44:45;7.50;;;6.80;;
3095;SDS011;1558;42.700;23.360;2023-06-10T07:47:13;7.07;;;6.43;;
3095;SDS011;1558;42.700;23.360;2023-06-10T07:49:42;7.88;;;6.78;;
3095;SDS011;1558;42.700;23.360;2023-06-10T07:52:10;7.18;;;6.57;;
3095;SDS011;1558;42.700;23.360;2023-06-10T07:54:38;6.35;;;5.75;;
3095;SDS011;1558;42.700;23.360;2023-06-10T07:57:08;7.00;;;6.35;;
3095;SDS011;1558;42.700;23.360;2023-06-10T07:59:36;6.80;;;6.10;;
3095;SDS011;1558;42.700;23.360;2023-06-10T08:02:04;7.68;;;6.95;;
3095;SDS011;1558;42.700;23.360;2023-06-10T08:04:33;6.68;;;6.05;;
3095;SDS011;1558;42.700;23.360;2023-06-10T08:07:04;7.38;;;6.63;;
3095;SDS011;1558;42.700;23.360;2023-06-10T08:09:32;7.35;;;6.72;;
3095;SDS011;1558;42.700;23.360;2023-06-10T08:12:01;6.70;;;5.88;;
3095;SDS011;1558;42.700;23.360;2023-06-10T08:14:32;6.25;;;5.68;;
3095;SDS011;1558;42.700;23.360;2023-06-10T08:17:00;5.88;;;5.38;;
3095;SDS011;1558;42.700;23.360;2023-06-10T08:19:28;8.45;;;7.20;;
3095;SDS011;1558;42.700;23.360;2023-06-10T08:21:59;8.40;;;7.70;;
3095;SDS011;1558;42.700;23.360;2023-06-10T08:24:27;7.03;;;6.03;;
3095;SDS011;1558;42.700;23.360;2023-06-10T08:26:55;7.00;;;5.82;;
3095;SDS011;1558;42.700;23.360;2023-06-10T08:29:24;5.70;;;5.13;;
3095;SDS011;1558;42.700;23.360;2023-06-10T08:31:55;5.43;;;4.97;;
3095;SDS011;1558;42.700;23.360;2023-06-10T08:34:23;4.43;;;4.13;;
3095;SDS011;1558;42.700;23.360;2023-06-10T08:36:51;5.47;;;4.97;;
3095;SDS011;1558;42.700;23.360;2023-06-10T08:39:21;6.10;;;5.50;;
3095;SDS011;1558;42.700;23.360;2023-06-10T08:41:54;6.97;;;5.00;;
3095;SDS011;1558;42.700;23.360;2023-06-10T08:44:29;5.57;;;5.07;;
3095;SDS011;1558;42.700;23.360;2023-06-10T08:47:00;8.55;;;5.82;;
3095;SDS011;1558;42.700;23.360;2023-06-10T08:49:37;6.03;;;5.45;;
3095;SDS011;1558;42.700;23.360;2023-06-10T08:52:08;6.68;;;5.20;;
3095;SDS011;1558;42.700;23.360;2023-06-10T08:54:43;5.40;;;4.90;;
3095;SDS011;1558;42.700;23.360;2023-06-10T08:57:16;5.20;;;4.80;;
3095;SDS011;1558;42.700;23.360;2023-06-10T08:59:46;4.60;;;4.15;;
3095;SDS011;1558;42.700;23.360;2023-06-10T09:02:17;5.57;;;4.88;;
3095;SDS011;1558;42.700;23.360;2023-06-10T09:04:47;5.20;;;4.70;;
3095;SDS011;1558;42.700;23.360;2023-06-10T09:07:15;6.32;;;5.03;;
3095;SDS011;1558;42.700;23.360;2023-06-10T09:09:44;5.32;;;4.82;;
3095;SDS011;1558;42.700;23.360;2023-06-10T09:12:13;5.10;;;4.65;;
3095;SDS011;1558;42.700;23.360;2023-06-10T09:14:42;4.97;;;4.68;;
3095;SDS011;1558;42.700;23.360;2023-06-10T09:17:12;5.07;;;4.65;;
3095;SDS011;1558;42.700;23.360;2023-06-10T09:19:42;4.63;;;4.32;;
3095;SDS011;1558;42.700;23.360;2023-06-10T09:22:14;5.25;;;4.85;;
3095;SDS011;1558;42.700;23.360;2023-06-10T09:24:42;5.10;;;4.70;;
3095;SDS011;1558;42.700;23.360;2023-06-10T09:27:13;5.32;;;4.93;;
3095;SDS011;1558;42.700;23.360;2023-06-10T09:29:47;6.38;;;5.78;;
3095;SDS011;1558;42.700;23.360;2023-06-10T09:32:18;5.63;;;5.22;;
3095;SDS011;1558;42.700;23.360;2023-06-10T09:34:49;5.55;;;5.20;;
3095;SDS011;1558;42.700;23.360;2023-06-10T09:37:23;7.60;;;6.72;;
3095;SDS011;1558;42.700;23.360;2023-06-10T09:42:37;5.57;;;5.20;;
3095;SDS011;1558;42.700;23.360;2023-06-10T09:45:07;5.50;;;5.00;;
3095;SDS011;1558;42.700;23.360;2023-06-10T09:47:36;4.70;;;4.30;;
3095;SDS011;1558;42.700;23.360;2023-06-10T09:50:06;4.60;;;4.30;;
3095;SDS011;1558;42.700;23.360;2023-06-10T09:52:38;5.80;;;5.25;;
3095;SDS011;1558;42.700;23.360;2023-06-10T09:55:10;6.63;;;6.13;;
3095;SDS011;1558;42.700;23.360;2023-06-10T09:57:41;6.18;;;5.68;;
3095;SDS011;1558;42.700;23.360;2023-06-10T10:00:11;6.75;;;6.00;;
3095;SDS011;1558;42.700;23.360;2023-06-10T10:02:46;5.60;;;4.90;;
3095;SDS011;1558;42.700;23.360;2023-06-10T10:05:18;5.53;;;5.13;;
3095;SDS011;1558;42.700;23.360;2023-06-10T10:07:48;5.65;;;5.25;;
3095;SDS011;1558;42.700;23.360;2023-06-10T10:10:17;6.85;;;6.30;;
3095;SDS011;1558;42.700;23.360;2023-06-10T10:12:47;5.45;;;5.05;;
3095;SDS011;1558;42.700;23.360;2023-06-10T10:15:16;5.53;;;5.13;;
3095;SDS011;1558;42.700;23.360;2023-06-10T10:17:46;6.30;;;5.80;;
3095;SDS011;1558;42.700;23.360;2023-06-10T10:20:22;5.78;;;5.22;;
3095;SDS011;1558;42.700;23.360;2023-06-10T10:22:55;5.13;;;4.72;;
3095;SDS011;1558;42.700;23.360;2023-06-10T10:25:27;6.30;;;5.70;;
3095;SDS011;1558;42.700;23.360;2023-06-10T10:28:02;6.88;;;6.28;;
3095;SDS011;1558;42.700;23.360;2023-06-10T10:30:37;6.40;;;5.80;;
3095;SDS011;1558;42.700;23.360;2023-06-10T10:33:09;7.32;;;5.10;;
3095;SDS011;1558;42.700;23.360;2023-06-10T10:35:44;6.00;;;5.50;;
3095;SDS011;1558;42.700;23.360;2023-06-10T10:38:15;5.28;;;4.88;;
3095;SDS011;1558;42.700;23.360;2023-06-10T10:40:44;6.25;;;5.75;;
3095;SDS011;1558;42.700;23.360;2023-06-10T10:43:14;5.07;;;4.65;;
3095;SDS011;1558;42.700;23.360;2023-06-10T10:45:45;6.47;;;5.93;;
3095;SDS011;1558;42.700;23.360;2023-06-10T10:48:14;5.65;;;5.10;;
3095;SDS011;1558;42.700;23.360;2023-06-10T10:50:44;7.70;;;6.95;;
3095;SDS011;1558;42.700;23.360;2023-06-10T10:53:24;5.78;;;5.28;;
3095;SDS011;1558;42.700;23.360;2023-06-10T10:55:59;5.75;;;5.25;;
3095;SDS011;1558;42.700;23.360;2023-06-10T10:58:27;7.20;;;6.13;;
3095;SDS011;1558;42.700;23.360;2023-06-10T11:00:55;8.80;;;7.93;;
3095;SDS011;1558;42.700;23.360;2023-06-10T11:03:24;6.30;;;5.80;;
3095;SDS011;1558;42.700;23.360;2023-06-10T11:05:58;10.20;;;9.40;;
3095;SDS011;1558;42.700;23.360;2023-06-10T11:11:18;7.63;;;6.88;;
3095;SDS011;1558;42.700;23.360;2023-06-10T11:14:06;5.80;;;5.40;;
3095;SDS011;1558;42.700;23.360;2023-06-10T11:16:39;6.20;;;5.78;;
3095;SDS011;1558;42.700;23.360;2023-06-10T11:19:09;6.18;;;5.60;;
3095;SDS011;1558;42.700;23.360;2023-06-10T11:21:59;5.25;;;4.85;;
3095;SDS011;1558;42.700;23.360;2023-06-10T11:24:28;7.32;;;6.03;;
3095;SDS011;1558;42.700;23.360;2023-06-10T11:29:56;5.30;;;4.80;;
3095;SDS011;1558;42.700;23.360;2023-06-10T11:32:25;5.80;;;5.38;;
3095;SDS011;1558;42.700;23.360;2023-06-10T11:34:58;5.57;;;5.13;;
3095;SDS011;1558;42.700;23.360;2023-06-10T11:37:28;4.43;;;4.13;;
3095;SDS011;1558;42.700;23.360;2023-06-10T11:39:56;5.20;;;4.80;;
3095;SDS011;1558;42.700;23.360;2023-06-10T11:42:26;4.63;;;4.22;;
3095;SDS011;1558;42.700;23.360;2023-06-10T11:44:54;4.32;;;3.95;;
3095;SDS011;1558;42.700;23.360;2023-06-10T11:47:22;4.65;;;4.25;;
3095;SDS011;1558;42.700;23.360;2023-06-10T11:49:55;5.25;;;3.97;;
3095;SDS011;1558;42.700;23.360;2023-06-10T11:52:26;4.50;;;4.07;;
3095;SDS011;1558;42.700;23.360;2023-06-10T11:54:56;4.72;;;4.35;;
3095;SDS011;1558;42.700;23.360;2023-06-10T11:57:24;5.40;;;4.90;;
3095;SDS011;1558;42.700;23.360;2023-06-10T11:59:52;4.18;;;3.83;;
3095;SDS011;1558;42.700;23.360;2023-06-10T12:02:20;5.10;;;4.43;;
3095;SDS011;1558;42.700;23.360;2023-06-10T12:04:48;4.43;;;3.85;;
3095;SDS011;1558;42.700;23.360;2023-06-10T12:07:17;4.03;;;3.75;;
3095;SDS011;1558;42.700;23.360;2023-06-10T12:09:52;4.28;;;3.80;;
3095;SDS011;1558;42.700;23.360;2023-06-10T12:12:37;4.25;;;3.85;;
3095;SDS011;1558;42.700;23.360;2023-06-10T12:15:07;4.57;;;4.28;;
3095;SDS011;1558;42.700;23.360;2023-06-10T12:17:37;7.93;;;5.65;;
3095;SDS011;1558;42.700;23.360;2023-06-10T12:20:06;5.28;;;4.78;;
3095;SDS011;1558;42.700;23.360;2023-06-10T12:22:36;9.85;;;7.60;;
3095;SDS011;1558;42.700;23.360;2023-06-10T12:25:06;4.60;;;4.20;;
3095;SDS011;1558;42.700;23.360;2023-06-10T12:27:36;4.18;;;3.88;;
3095;SDS011;1558;42.700;23.360;2023-06-10T12:30:06;4.25;;;3.95;;
3095;SDS011;1558;42.700;23.360;2023-06-10T12:32:35;5.72;;;3.90;;
3095;SDS011;1558;42.700;23.360;2023-06-10T12:35:04;4.20;;;3.80;;
3095;SDS011;1558;42.700;23.360;2023-06-10T12:37:34;5.22;;;4.82;;
3095;SDS011;1558;42.700;23.360;2023-06-10T12:40:10;4.38;;;3.97;;
3095;SDS011;1558;42.700;23.360;2023-06-10T12:42:38;4.53;;;4.05;;
3095;SDS011;1558;42.700;23.360;2023-06-10T12:45:08;4.05;;;3.70;;
3095;SDS011;1558;42.700;23.360;2023-06-10T12:47:39;3.92;;;3.60;;
3095;SDS011;1558;42.700;23.360;2023-06-10T12:50:08;4.93;;;4.43;;
3095;SDS011;1558;42.700;23.360;2023-06-10T12:52:39;4.20;;;3.90;;
3095;SDS011;1558;42.700;23.360;2023-06-10T12:55:10;4.55;;;3.90;;
3095;SDS011;1558;42.700;23.360;2023-06-10T12:57:47;4.80;;;4.28;;
3095;SDS011;1558;42.700;23.360;2023-06-10T13:00:16;4.60;;;3.90;;
3095;SDS011;1558;42.700;23.360;2023-06-10T13:02:46;6.05;;;3.88;;
3095;SDS011;1558;42.700;23.360;2023-06-10T13:05:14;4.40;;;4.05;;
3095;SDS011;1558;42.700;23.360;2023-06-10T13:07:43;4.78;;;4.38;;
3095;SDS011;1558;42.700;23.360;2023-06-10T13:10:13;6.72;;;6.03;;
3095;SDS011;1558;42.700;23.360;2023-06-10T13:12:42;4.38;;;3.97;;
3095;SDS011;1558;42.700;23.360;2023-06-10T13:15:14;4.30;;;3.85;;
3095;SDS011;1558;42.700;23.360;2023-06-10T13:17:44;4.22;;;3.80;;
3095;SDS011;1558;42.700;23.360;2023-06-10T13:20:16;5.35;;;3.88;;
3095;SDS011;1558;42.700;23.360;2023-06-10T13:22:45;4.28;;;3.90;;
3095;SDS011;1558;42.700;23.360;2023-06-10T13:25:15;9.00;;;4.32;;
3095;SDS011;1558;42.700;23.360;2023-06-10T13:27:43;7.65;;;5.10;;
3095;SDS011;1558;42.700;23.360;2023-06-10T13:30:12;6.15;;;4.93;;
3095;SDS011;1558;42.700;23.360;2023-06-10T13:32:40;7.45;;;5.07;;
3095;SDS011;1558;42.700;23.360;2023-06-10T13:35:08;5.90;;;5.32;;
3095;SDS011;1558;42.700;23.360;2023-06-10T13:37:39;6.47;;;5.35;;
3095;SDS011;1558;42.700;23.360;2023-06-10T13:40:10;5.60;;;5.10;;
3095;SDS011;1558;42.700;23.360;2023-06-10T13:42:40;6.35;;;5.30;;
3095;SDS011;1558;42.700;23.360;2023-06-10T13:45:08;8.02;;;5.38;;
3095;SDS011;1558;42.700;23.360;2023-06-10T13:47:38;6.50;;;4.90;;
3095;SDS011;1558;42.700;23.360;2023-06-10T13:50:08;7.57;;;6.43;;
3095;SDS011;1558;42.700;23.360;2023-06-10T13:52:37;7.70;;;6.00;;
3095;SDS011;1558;42.700;23.360;2023-06-10T13:55:05;6.28;;;5.68;;
3095;SDS011;1558;42.700;23.360;2023-06-10T13:57:34;5.80;;;5.30;;
3095;SDS011;1558;42.700;23.360;2023-06-10T14:00:04;6.65;;;5.60;;
3095;SDS011;1558;42.700;23.360;2023-06-10T14:02:33;7.93;;;6.25;;
3095;SDS011;1558;42.700;23.360;2023-06-10T14:05:02;5.97;;;5.47;;
3095;SDS011;1558;42.700;23.360;2023-06-10T14:07:32;5.50;;;5.00;;
3095;SDS011;1558;42.700;23.360;2023-06-10T14:10:05;6.25;;;5.65;;
3095;SDS011;1558;42.700;23.360;2023-06-10T14:12:35;5.90;;;5.40;;
3095;SDS011;1558;42.700;23.360;2023-06-10T14:15:05;5.70;;;5.20;;
3095;SDS011;1558;42.700;23.360;2023-06-10T14:17:35;5.40;;;4.90;;
3095;SDS011;1558;42.700;23.360;2023-06-10T14:20:04;6.82;;;5.57;;
3095;SDS011;1558;42.700;23.360;2023-06-10T14:22:33;5.95;;;5.43;;
3095;SDS011;1558;42.700;23.360;2023-06-10T14:25:05;6.95;;;5.78;;
3095;SDS011;1558;42.700;23.360;2023-06-10T14:27:36;5.72;;;5.22;;
3095;SDS011;1558;42.700;23.360;2023-06-10T14:30:06;5.88;;;5.28;;
3095;SDS011;1558;42.700;23.360;2023-06-10T14:32:35;5.63;;;5.05;;
3095;SDS011;1558;42.700;23.360;2023-06-10T14:35:03;6.28;;;5.03;;
3095;SDS011;1558;42.700;23.360;2023-06-10T14:37:32;6.03;;;5.20;;
3095;SDS011;1558;42.700;23.360;2023-06-10T14:40:01;5.50;;;5.00;;
3095;SDS011;1558;42.700;23.360;2023-06-10T14:42:29;5.38;;;4.97;;
3095;SDS011;1558;42.700;23.360;2023-06-10T14:44:58;5.13;;;4.72;;
3095;SDS011;1558;42.700;23.360;2023-06-10T14:47:28;5.45;;;4.95;;
3095;SDS011;1558;42.700;23.360;2023-06-10T14:49:57;6.88;;;5.07;;
3095;SDS011;1558;42.700;23.360;2023-06-10T14:52:25;6.10;;;5.43;;
3095;SDS011;1558;42.700;23.360;2023-06-10T14:54:53;6.45;;;5.90;;
3095;SDS011;1558;42.700;23.360;2023-06-10T14:57:21;7.22;;;6.30;;
3095;SDS011;1558;42.700;23.360;2023-06-10T14:59:50;5.90;;;5.07;;
3095;SDS011;1558;42.700;23.360;2023-06-10T15:02:18;4.90;;;4.50;;
3095;SDS011;1558;42.700;23.360;2023-06-10T15:04:47;5.93;;;5.18;;
3095;SDS011;1558;42.700;23.360;2023-06-10T15:07:16;6.13;;;5.53;;
3095;SDS011;1558;42.700;23.360;2023-06-10T15:09:44;7.65;;;5.40;;
3095;SDS011;1558;42.700;23.360;2023-06-10T15:12:12;6.70;;;5.40;;
3095;SDS011;1558;42.700;23.360;2023-06-10T15:14:40;7.32;;;5.60;;
3095;SDS011;1558;42.700;23.360;2023-06-10T15:17:08;7.00;;;6.28;;